createdAt,value
2018-12-29T00:02:18.954Z,6.60
2018-12-29T00:04:48.197Z,6.60
2018-12-29T00:07:17.470Z,6.60
2018-12-29T00:09:46.660Z,6.50
2018-12-29T00:12:15.889Z,6.50
2018-12-29T00:14:45.127Z,6.50
2018-12-29T00:17:14.334Z,6.60
2018-12-29T00:19:43.561Z,6.60
2018-12-29T00:22:12.813Z,6.50
2018-12-29T00:24:42.101Z,6.50
2018-12-29T00:27:11.304Z,6.50
2018-12-29T00:29:40.545Z,6.50
2018-12-29T00:32:09.763Z,6.50
2018-12-29T00:34:38.996Z,6.50
2018-12-29T00:37:08.229Z,6.50
2018-12-29T00:39:37.473Z,6.50
2018-12-29T00:42:06.731Z,6.50
2018-12-29T00:44:35.961Z,6.50
2018-12-29T00:47:05.176Z,6.50
2018-12-29T00:49:34.414Z,6.50
2018-12-29T00:52:03.665Z,6.50
2018-12-29T00:54:32.926Z,6.60
2018-12-29T00:57:02.190Z,6.50
2018-12-29T00:59:31.428Z,6.50
2018-12-29T01:02:00.747Z,6.50
2018-12-29T01:04:29.996Z,6.50
2018-12-29T01:06:59.229Z,6.50
2018-12-29T01:09:28.450Z,6.50
2018-12-29T01:11:57.698Z,6.50
2018-12-29T01:14:26.938Z,6.50
2018-12-29T01:16:56.273Z,6.50
2018-12-29T01:19:25.497Z,6.50
2018-12-29T01:21:54.732Z,6.50
2018-12-29T01:24:23.956Z,6.50
2018-12-29T01:26:53.176Z,6.50
2018-12-29T01:29:22.497Z,6.50
2018-12-29T01:31:51.713Z,6.50
2018-12-29T01:34:21.044Z,6.50
2018-12-29T01:36:50.289Z,6.50
2018-12-29T01:39:19.502Z,6.50
2018-12-29T01:41:48.726Z,6.60
2018-12-29T01:44:17.991Z,6.60
2018-12-29T01:46:47.303Z,6.60
2018-12-29T01:49:16.537Z,6.60
2018-12-29T01:51:45.848Z,6.70
2018-12-29T01:54:15.068Z,6.70
2018-12-29T01:56:44.316Z,6.70
2018-12-29T01:59:13.542Z,6.70
2018-12-29T02:01:42.794Z,6.70
2018-12-29T02:04:12.020Z,6.70
2018-12-29T02:06:41.273Z,6.70
2018-12-29T02:09:10.495Z,6.70
2018-12-29T02:11:39.882Z,6.70
2018-12-29T02:14:09.104Z,6.70
2018-12-29T02:16:38.337Z,6.70
2018-12-29T02:19:07.602Z,6.80
2018-12-29T02:21:36.823Z,6.70
2018-12-29T02:24:06.054Z,6.70
2018-12-29T02:26:35.275Z,6.80
2018-12-29T02:29:04.538Z,6.80
2018-12-29T02:31:33.768Z,6.80
2018-12-29T02:34:02.984Z,6.80
2018-12-29T02:36:32.226Z,6.80
2018-12-29T02:39:01.457Z,6.80
2018-12-29T02:41:30.690Z,6.90
2018-12-29T02:43:59.913Z,6.90
2018-12-29T02:46:29.174Z,6.90
2018-12-29T02:48:58.454Z,6.90
2018-12-29T02:51:27.721Z,6.90
2018-12-29T02:53:56.962Z,6.90
2018-12-29T02:56:26.208Z,6.90
2018-12-29T02:58:55.449Z,6.90
2018-12-29T03:01:24.717Z,7.00
2018-12-29T03:03:53.945Z,7.00
2018-12-29T03:06:23.206Z,7.00
2018-12-29T03:08:52.417Z,7.00
2018-12-29T03:11:21.718Z,7.00
2018-12-29T03:13:50.975Z,7.00
2018-12-29T03:16:20.193Z,7.00
2018-12-29T03:18:49.462Z,7.00
2018-12-29T03:21:18.762Z,7.00
2018-12-29T03:23:48.005Z,7.00
2018-12-29T03:26:17.235Z,7.00
2018-12-29T03:28:46.540Z,7.00
2018-12-29T03:31:15.826Z,7.00
2018-12-29T03:33:45.160Z,7.00
2018-12-29T03:36:14.357Z,7.00
2018-12-29T03:38:43.597Z,7.00
2018-12-29T03:41:12.825Z,7.00
2018-12-29T03:43:42.063Z,7.00
2018-12-29T03:46:11.284Z,7.00
2018-12-29T03:48:40.508Z,7.00
2018-12-29T03:51:09.918Z,7.00
2018-12-29T03:53:39.081Z,7.00
2018-12-29T03:56:08.340Z,7.00
2018-12-29T03:58:37.544Z,7.00
2018-12-29T04:01:06.782Z,7.00
2018-12-29T04:03:36.260Z,7.00
2018-12-29T04:06:05.516Z,7.00
2018-12-29T04:08:34.757Z,7.00
2018-12-29T04:11:03.955Z,7.00
2018-12-29T04:13:33.486Z,7.00
2018-12-29T04:16:02.709Z,7.00
2018-12-29T04:18:31.937Z,7.10
2018-12-29T04:21:01.155Z,7.10
2018-12-29T04:23:30.377Z,7.10
2018-12-29T04:25:59.616Z,7.10
2018-12-29T04:28:28.821Z,7.10
2018-12-29T04:30:58.102Z,7.10
2018-12-29T04:33:27.340Z,7.10
2018-12-29T04:35:56.536Z,7.10
2018-12-29T04:38:25.794Z,7.10
2018-12-29T04:40:55.062Z,7.10
2018-12-29T04:43:24.260Z,7.10
2018-12-29T04:45:53.502Z,7.10
2018-12-29T04:48:22.720Z,7.10
2018-12-29T04:50:52.075Z,7.10
2018-12-29T04:53:21.276Z,7.10
2018-12-29T04:55:50.488Z,7.10
2018-12-29T04:58:19.729Z,7.10
2018-12-29T05:00:48.947Z,7.10
2018-12-29T05:03:18.191Z,7.10
2018-12-29T05:05:47.421Z,7.10
2018-12-29T05:08:16.675Z,7.10
2018-12-29T05:10:45.878Z,7.10
2018-12-29T05:13:15.112Z,7.10
2018-12-29T05:15:44.316Z,7.20
2018-12-29T05:18:13.620Z,7.20
2018-12-29T05:20:42.952Z,7.20
2018-12-29T05:23:12.189Z,7.20
2018-12-29T05:25:41.418Z,7.20
2018-12-29T05:28:10.623Z,7.20
2018-12-29T05:30:39.840Z,7.20
2018-12-29T05:33:09.069Z,7.20
2018-12-29T05:35:38.291Z,7.20
2018-12-29T05:38:07.560Z,7.20
2018-12-29T05:40:36.764Z,7.20
2018-12-29T05:43:06.061Z,7.20
2018-12-29T05:45:35.256Z,7.20
2018-12-29T05:48:04.479Z,7.20
2018-12-29T05:50:33.690Z,7.20
2018-12-29T05:53:02.917Z,7.20
2018-12-29T05:55:32.133Z,7.20
2018-12-29T05:58:01.345Z,7.30
2018-12-29T06:00:30.586Z,7.30
2018-12-29T06:02:59.797Z,7.30
2018-12-29T06:05:29.011Z,7.30
2018-12-29T06:07:58.264Z,7.30
2018-12-29T06:10:27.585Z,7.30
2018-12-29T06:12:56.779Z,7.30
2018-12-29T06:15:25.964Z,7.30
2018-12-29T06:17:55.205Z,7.30
2018-12-29T06:20:24.413Z,7.30
2018-12-29T06:22:53.729Z,7.30
2018-12-29T06:25:22.940Z,7.30
2018-12-29T06:27:52.214Z,7.30
2018-12-29T06:30:21.438Z,7.30
2018-12-29T06:32:50.636Z,7.30
2018-12-29T06:35:19.953Z,7.30
2018-12-29T06:37:49.282Z,7.30
2018-12-29T06:40:18.524Z,7.30
2018-12-29T06:42:47.733Z,7.30
2018-12-29T06:45:16.970Z,7.30
2018-12-29T06:47:46.225Z,7.30
2018-12-29T06:50:15.422Z,7.40
2018-12-29T06:52:45.018Z,7.40
2018-12-29T06:55:14.228Z,7.40
2018-12-29T06:57:43.441Z,7.40
2018-12-29T07:00:12.686Z,7.40
2018-12-29T07:02:41.989Z,7.40
2018-12-29T07:05:11.304Z,7.40
2018-12-29T07:07:40.583Z,7.50
2018-12-29T07:10:09.788Z,7.40
2018-12-29T07:12:39.016Z,7.50
2018-12-29T07:15:08.229Z,7.50
2018-12-29T07:17:37.456Z,7.50
2018-12-29T07:20:06.856Z,7.50
2018-12-29T07:22:36.397Z,7.50
2018-12-29T07:25:05.611Z,7.60
2018-12-29T07:27:34.881Z,7.60
2018-12-29T07:30:04.172Z,7.60
2018-12-29T07:32:33.400Z,7.60
2018-12-29T07:35:02.617Z,7.60
2018-12-29T07:37:31.873Z,7.60
2018-12-29T07:40:01.186Z,7.60
2018-12-29T07:42:30.424Z,7.60
2018-12-29T07:44:59.670Z,7.60
2018-12-29T07:47:28.873Z,7.60
2018-12-29T07:49:58.124Z,7.70
2018-12-29T07:52:27.388Z,7.60
2018-12-29T07:54:56.637Z,7.70
2018-12-29T07:57:25.848Z,7.70
2018-12-29T07:59:55.090Z,7.60
2018-12-29T08:02:24.399Z,7.70
2018-12-29T08:04:53.744Z,7.70
2018-12-29T08:07:22.972Z,7.70
2018-12-29T08:09:52.204Z,7.70
2018-12-29T08:12:21.459Z,7.60
2018-12-29T08:14:50.663Z,7.60
2018-12-29T08:17:19.972Z,7.60
2018-12-29T08:19:49.215Z,7.60
2018-12-29T08:22:19.291Z,7.60
2018-12-29T08:24:48.560Z,7.60
2018-12-29T08:27:17.783Z,7.60
2018-12-29T08:29:47.102Z,7.60
2018-12-29T08:32:16.333Z,7.60
2018-12-29T08:34:45.551Z,7.60
2018-12-29T08:37:14.804Z,7.60
2018-12-29T08:39:44.096Z,7.60
2018-12-29T08:42:13.346Z,7.60
2018-12-29T08:44:42.550Z,7.60
2018-12-29T08:47:11.848Z,7.60
2018-12-29T08:49:41.397Z,7.60
2018-12-29T08:52:10.668Z,7.60
2018-12-29T08:54:39.885Z,7.60
2018-12-29T08:57:09.109Z,7.60
2018-12-29T08:59:38.698Z,7.70
2018-12-29T09:02:07.943Z,7.70
2018-12-29T09:04:37.245Z,7.70
2018-12-29T09:07:06.473Z,7.70
2018-12-29T09:09:35.737Z,7.70
2018-12-29T09:12:04.985Z,7.80
2018-12-29T09:14:34.203Z,7.80
2018-12-29T09:17:03.527Z,7.80
2018-12-29T09:19:32.749Z,7.80
2018-12-29T09:22:01.984Z,7.80
2018-12-29T09:24:31.220Z,7.90
2018-12-29T09:27:00.475Z,7.90
2018-12-29T09:29:29.764Z,8.00
2018-12-29T09:31:59.000Z,8.00
2018-12-29T09:34:28.277Z,8.00
2018-12-29T09:36:57.485Z,8.00
2018-12-29T09:39:26.732Z,8.00
2018-12-29T09:41:55.952Z,8.00
2018-12-29T09:44:25.218Z,8.00
2018-12-29T09:46:55.058Z,8.00
2018-12-29T09:49:24.350Z,8.00
2018-12-29T09:51:53.649Z,8.00
2018-12-29T09:54:22.872Z,8.00
2018-12-29T09:56:52.073Z,8.00
2018-12-29T09:59:21.417Z,8.00
2018-12-29T10:01:50.624Z,8.00
2018-12-29T10:04:19.837Z,8.00
2018-12-29T10:06:49.102Z,8.00
2018-12-29T10:09:18.345Z,8.00
2018-12-29T10:11:47.540Z,8.00
2018-12-29T10:14:16.863Z,8.00
2018-12-29T10:16:46.060Z,8.00
2018-12-29T10:19:15.322Z,8.00
2018-12-29T10:21:44.565Z,8.00
2018-12-29T10:24:13.853Z,8.00
2018-12-29T10:26:43.094Z,8.00
2018-12-29T10:29:12.316Z,8.10
2018-12-29T10:31:41.578Z,8.10
2018-12-29T10:34:10.870Z,8.10
2018-12-29T10:36:40.113Z,8.00
2018-12-29T10:39:09.309Z,8.00
2018-12-29T10:41:38.505Z,8.00
2018-12-29T10:44:07.746Z,8.00
2018-12-29T10:46:36.981Z,8.10
2018-12-29T10:49:06.203Z,8.10
2018-12-29T10:51:35.516Z,8.10
2018-12-29T10:54:04.757Z,8.00
2018-12-29T10:56:34.012Z,8.00
2018-12-29T10:59:03.234Z,8.00
2018-12-29T11:01:32.429Z,8.10
2018-12-29T11:04:01.676Z,8.10
2018-12-29T11:06:30.940Z,8.10
2018-12-29T11:09:00.162Z,8.10
2018-12-29T11:11:29.448Z,8.20
2018-12-29T11:13:58.668Z,8.20
2018-12-29T11:16:30.202Z,8.10
2018-12-29T11:18:59.424Z,8.10
2018-12-29T11:21:28.726Z,8.10
2018-12-29T11:23:57.973Z,8.10
2018-12-29T11:26:27.189Z,8.10
2018-12-29T11:28:56.411Z,8.10
2018-12-29T11:31:25.685Z,8.10
2018-12-29T11:33:54.896Z,8.00
2018-12-29T11:36:24.158Z,8.00
2018-12-29T11:38:53.360Z,8.10
2018-12-29T11:41:24.016Z,8.00
2018-12-29T11:43:53.921Z,8.00
2018-12-29T11:46:23.173Z,8.10
2018-12-29T11:48:52.381Z,8.10
2018-12-29T11:51:21.619Z,8.10
2018-12-29T11:53:50.817Z,8.10
2018-12-29T11:56:20.144Z,8.10
2018-12-29T11:58:49.380Z,8.10
2018-12-29T12:01:18.612Z,8.10
2018-12-29T12:03:47.796Z,8.10
2018-12-29T12:06:17.023Z,8.10
2018-12-29T12:08:46.240Z,8.10
2018-12-29T12:11:15.470Z,8.10
2018-12-29T12:13:45.026Z,8.10
2018-12-29T12:16:14.256Z,8.10
2018-12-29T12:18:43.517Z,8.10
2018-12-29T12:21:12.734Z,8.10
2018-12-29T12:23:41.992Z,8.10
2018-12-29T12:26:11.234Z,8.20
2018-12-29T12:28:40.463Z,8.20
2018-12-29T12:31:09.709Z,8.20
2018-12-29T12:33:39.010Z,8.20
2018-12-29T12:36:08.249Z,8.20
2018-12-29T12:38:37.455Z,8.20
2018-12-29T12:41:06.705Z,8.30
2018-12-29T12:43:35.947Z,8.30
2018-12-29T12:46:05.428Z,8.30
2018-12-29T12:48:34.681Z,8.30
2018-12-29T12:51:04.188Z,8.20
2018-12-29T12:53:33.420Z,8.20
2018-12-29T12:56:02.708Z,8.20
2018-12-29T12:58:31.923Z,8.20
2018-12-29T13:01:01.472Z,8.20
2018-12-29T13:03:31.133Z,8.10
2018-12-29T13:06:00.369Z,8.10
2018-12-29T13:08:29.608Z,8.10
2018-12-29T13:10:58.854Z,8.10
2018-12-29T13:13:28.059Z,8.10
2018-12-29T13:15:57.687Z,8.00
2018-12-29T13:18:26.900Z,8.00
2018-12-29T13:20:56.126Z,8.00
2018-12-29T13:23:25.320Z,8.00
2018-12-29T13:25:54.560Z,8.00
2018-12-29T13:28:23.766Z,8.00
2018-12-29T13:30:52.994Z,8.00
2018-12-29T13:33:22.244Z,8.00
2018-12-29T13:35:51.556Z,8.10
2018-12-29T13:38:20.800Z,8.10
2018-12-29T13:40:50.061Z,8.10
2018-12-29T13:43:19.282Z,8.10
2018-12-29T13:45:48.485Z,8.10
2018-12-29T13:48:20.743Z,8.10
2018-12-29T13:50:48.697Z,8.20
2018-12-29T13:53:17.922Z,8.20
2018-12-29T13:55:47.221Z,8.20
2018-12-29T13:58:16.462Z,8.20
2018-12-29T14:00:45.704Z,8.20
2018-12-29T14:03:14.996Z,8.20
2018-12-29T14:05:44.228Z,8.20
2018-12-29T14:08:13.443Z,8.20
2018-12-29T14:10:42.679Z,8.10
2018-12-29T14:13:11.919Z,8.10
2018-12-29T14:15:41.165Z,8.10
2018-12-29T14:18:10.323Z,8.10
2018-12-29T14:20:39.546Z,8.10
2018-12-29T14:23:08.771Z,8.10
2018-12-29T14:25:38.288Z,8.10
2018-12-29T14:28:07.514Z,8.10
2018-12-29T14:30:36.768Z,8.00
2018-12-29T14:33:05.989Z,8.00
2018-12-29T14:35:35.205Z,7.90
2018-12-29T14:38:04.762Z,7.90
2018-12-29T14:40:33.976Z,7.80
2018-12-29T14:43:03.273Z,7.80
2018-12-29T14:45:32.499Z,7.80
2018-12-29T14:48:01.715Z,7.70
2018-12-29T14:50:30.946Z,7.70
2018-12-29T14:53:00.177Z,7.60
2018-12-29T14:55:29.444Z,7.60
2018-12-29T14:57:58.665Z,7.60
2018-12-29T15:00:27.901Z,7.50
2018-12-29T15:02:57.101Z,7.50
2018-12-29T15:05:26.329Z,7.50
2018-12-29T15:07:55.552Z,7.50
2018-12-29T15:10:24.784Z,7.40
2018-12-29T15:12:54.125Z,7.40
2018-12-29T15:15:23.357Z,7.40
2018-12-29T15:17:52.572Z,7.40
2018-12-29T15:20:22.005Z,7.40
2018-12-29T15:22:51.231Z,7.30
2018-12-29T15:25:20.456Z,7.30
2018-12-29T15:27:49.865Z,7.30
2018-12-29T15:30:19.164Z,7.30
2018-12-29T15:32:48.407Z,7.30
2018-12-29T15:35:17.752Z,7.40
2018-12-29T15:37:47.044Z,7.40
2018-12-29T15:40:16.280Z,7.40
2018-12-29T15:42:45.529Z,7.40
2018-12-29T15:45:14.788Z,7.30
2018-12-29T15:47:44.012Z,7.30
2018-12-29T15:50:13.272Z,7.30
2018-12-29T15:52:42.474Z,7.30
2018-12-29T15:55:11.808Z,7.30
2018-12-29T15:57:41.036Z,7.30
2018-12-29T16:00:10.380Z,7.30
2018-12-29T16:02:39.603Z,7.30
2018-12-29T16:05:08.843Z,7.30
2018-12-29T16:07:38.457Z,7.30
2018-12-29T16:10:07.836Z,7.40
2018-12-29T16:12:37.100Z,7.30
2018-12-29T16:15:06.440Z,7.40
2018-12-29T16:17:35.617Z,7.40
2018-12-29T16:20:05.128Z,7.40
2018-12-29T16:22:34.369Z,7.40
2018-12-29T16:25:03.664Z,7.40
2018-12-29T16:27:32.921Z,7.40
2018-12-29T16:30:02.136Z,7.40
2018-12-29T16:32:31.447Z,7.40
2018-12-29T16:35:00.692Z,7.40
2018-12-29T16:37:29.903Z,7.40
2018-12-29T16:39:59.138Z,7.50
2018-12-29T16:42:28.658Z,7.50
2018-12-29T16:44:57.875Z,7.50
2018-12-29T16:47:27.197Z,7.50
2018-12-29T16:49:56.447Z,7.60
2018-12-29T16:52:25.976Z,7.60
2018-12-29T16:54:55.201Z,7.60
2018-12-29T16:57:24.428Z,7.60
2018-12-29T16:59:53.634Z,7.60
2018-12-29T17:02:23.297Z,7.60
2018-12-29T17:04:52.534Z,7.60
2018-12-29T17:07:21.761Z,7.70
2018-12-29T17:09:51.001Z,7.70
2018-12-29T17:12:20.657Z,7.70
2018-12-29T17:14:49.882Z,7.70
2018-12-29T17:17:19.185Z,7.70
2018-12-29T17:19:48.389Z,7.70
2018-12-29T17:22:17.662Z,7.70
2018-12-29T17:24:46.889Z,7.80
2018-12-29T17:27:16.201Z,7.80
2018-12-29T17:29:45.420Z,7.80
2018-12-29T17:32:14.660Z,7.80
2018-12-29T17:34:43.886Z,7.80
2018-12-29T17:37:13.116Z,7.80
2018-12-29T17:39:42.563Z,7.80
2018-12-29T17:42:11.791Z,7.80
2018-12-29T17:44:41.036Z,7.90
2018-12-29T17:47:10.344Z,7.90
2018-12-29T17:49:39.619Z,7.90
2018-12-29T17:52:08.793Z,7.90
2018-12-29T17:54:38.328Z,7.90
2018-12-29T17:57:07.543Z,7.90
2018-12-29T17:59:36.832Z,7.90
2018-12-29T18:02:06.063Z,7.90
2018-12-29T18:04:35.689Z,7.90
2018-12-29T18:07:05.109Z,7.90
2018-12-29T18:09:34.332Z,7.90
2018-12-29T18:12:04.012Z,7.90
2018-12-29T18:14:33.262Z,7.90
2018-12-29T18:17:02.468Z,7.90
2018-12-29T18:19:31.718Z,7.90
2018-12-29T18:22:01.033Z,8.00
2018-12-29T18:24:30.286Z,8.00
2018-12-29T18:26:59.492Z,8.00
2018-12-29T18:29:28.717Z,8.00
2018-12-29T18:31:58.333Z,8.00
2018-12-29T18:34:27.547Z,8.00
2018-12-29T18:36:56.876Z,8.00
2018-12-29T18:39:26.088Z,8.00
2018-12-29T18:41:55.325Z,8.10
2018-12-29T18:44:24.566Z,8.10
2018-12-29T18:46:54.088Z,8.10
2018-12-29T18:49:23.340Z,8.10
2018-12-29T18:51:52.580Z,8.10
2018-12-29T18:54:21.801Z,8.10
2018-12-29T18:56:51.037Z,8.10
2018-12-29T18:59:20.286Z,8.10
2018-12-29T19:01:57.354Z,8.20
2018-12-29T19:04:20.743Z,8.20
2018-12-29T19:06:49.966Z,8.20
2018-12-29T19:09:19.223Z,8.20
2018-12-29T19:11:48.463Z,8.20
2018-12-29T19:14:18.142Z,8.30
2018-12-29T19:16:47.392Z,8.30
2018-12-29T19:19:16.625Z,8.40
2018-12-29T19:21:45.917Z,8.40
2018-12-29T19:24:15.132Z,8.40
2018-12-29T19:26:44.874Z,8.40
2018-12-29T19:29:14.098Z,8.40
2018-12-29T19:31:44.672Z,8.50
2018-12-29T19:34:14.235Z,8.50
2018-12-29T19:36:43.438Z,8.50
2018-12-29T19:39:13.049Z,8.50
2018-12-29T19:42:11.645Z,8.50
2018-12-29T19:44:13.180Z,8.50
2018-12-29T19:46:42.709Z,8.50
2018-12-29T19:49:12.253Z,8.40
2018-12-29T19:51:41.481Z,8.40
2018-12-29T19:54:10.685Z,8.40
2018-12-29T19:56:40.324Z,8.30
2018-12-29T19:59:09.936Z,8.30
2018-12-29T20:01:39.593Z,8.30
2018-12-29T20:04:09.221Z,8.20
2018-12-29T20:06:38.936Z,8.20
2018-12-29T20:09:08.414Z,8.10
2018-12-29T20:11:37.653Z,8.10
2018-12-29T20:14:06.921Z,8.10
2018-12-29T20:16:36.212Z,8.10
2018-12-29T20:19:05.425Z,8.00
2018-12-29T20:21:34.680Z,8.00
2018-12-29T20:24:03.905Z,8.00
2018-12-29T20:26:33.128Z,8.00
2018-12-29T20:29:02.337Z,7.90
2018-12-29T20:31:31.644Z,7.90
2018-12-29T20:34:00.860Z,7.90
2018-12-29T20:36:30.113Z,7.90
2018-12-29T20:38:59.316Z,7.90
2018-12-29T20:41:28.576Z,7.90
2018-12-29T20:43:57.888Z,7.90
2018-12-29T20:46:27.221Z,7.90
2018-12-29T20:48:56.420Z,7.80
2018-12-29T20:51:25.678Z,7.80
2018-12-29T20:53:54.879Z,7.80
2018-12-29T20:56:24.133Z,7.80
2018-12-29T20:58:53.351Z,7.80
2018-12-29T21:01:22.585Z,7.80
2018-12-29T21:03:51.825Z,7.80
2018-12-29T21:06:21.379Z,7.80
2018-12-29T21:08:50.637Z,7.80
2018-12-29T21:11:19.842Z,7.80
2018-12-29T21:13:49.097Z,7.80
2018-12-29T21:16:18.337Z,7.80
2018-12-29T21:18:47.862Z,7.80
2018-12-29T21:21:17.104Z,7.80
2018-12-29T21:23:47.861Z,7.80
2018-12-29T21:26:17.097Z,7.80
2018-12-29T21:28:46.300Z,7.80
2018-12-29T21:31:15.578Z,7.80
2018-12-29T21:33:44.788Z,7.80
2018-12-29T21:36:14.016Z,7.80
2018-12-29T21:38:43.628Z,7.80
2018-12-29T21:41:13.047Z,7.80
2018-12-29T21:43:42.314Z,7.80
2018-12-29T21:46:11.529Z,7.80
2018-12-29T21:48:40.809Z,7.80
2018-12-29T21:51:10.101Z,7.80
2018-12-29T21:53:39.425Z,7.80
2018-12-29T21:56:08.669Z,7.80
2018-12-29T21:58:38.184Z,7.90
2018-12-29T22:01:07.509Z,7.90
2018-12-29T22:03:36.719Z,7.90
2018-12-29T22:06:05.971Z,7.90
2018-12-29T22:08:35.192Z,7.90
2018-12-29T22:11:04.925Z,7.90
2018-12-29T22:13:34.229Z,7.90
2018-12-29T22:16:03.489Z,8.00
2018-12-29T22:18:32.720Z,8.00
2018-12-29T22:21:01.965Z,8.00
2018-12-29T22:23:31.178Z,8.00
2018-12-29T22:26:00.443Z,8.00
2018-12-29T22:28:29.650Z,8.00
2018-12-29T22:30:58.876Z,8.00
2018-12-29T22:33:28.250Z,8.00
2018-12-29T22:35:57.537Z,8.00
2018-12-29T22:38:26.806Z,8.00
2018-12-29T22:40:56.086Z,8.10
2018-12-29T22:43:25.307Z,8.10
2018-12-29T22:45:54.528Z,8.10
2018-12-29T22:48:23.769Z,8.10
2018-12-29T22:50:53.107Z,8.10
2018-12-29T22:53:22.336Z,8.10
2018-12-29T22:55:51.635Z,8.10
2018-12-29T22:58:20.841Z,8.10
2018-12-29T23:00:50.169Z,8.10
2018-12-29T23:03:19.401Z,8.10
2018-12-29T23:05:48.648Z,8.10
2018-12-29T23:08:17.876Z,8.10
2018-12-29T23:10:47.085Z,8.20
2018-12-29T23:13:16.506Z,8.10
2018-12-29T23:15:45.760Z,8.20
2018-12-29T23:18:14.965Z,8.20
2018-12-29T23:20:48.983Z,8.20
2018-12-29T23:23:15.467Z,8.20
2018-12-29T23:25:45.129Z,8.20
2018-12-29T23:28:14.360Z,8.20
2018-12-29T23:30:43.610Z,8.20
2018-12-29T23:33:12.800Z,8.30
2018-12-29T23:35:42.053Z,8.30
2018-12-29T23:38:11.668Z,8.30
2018-12-29T23:40:40.885Z,8.30
2018-12-29T23:43:10.136Z,8.40
2018-12-29T23:45:39.701Z,8.40
2018-12-29T23:48:08.910Z,8.40
2018-12-29T23:50:38.165Z,8.40
2018-12-29T23:53:07.407Z,8.40
2018-12-29T23:55:37.015Z,8.40
2018-12-29T23:58:06.254Z,8.40
